Time;durP1;ratioP1;P1;durP2;ratioP2;P2;SDS_P1;SDS_P2;PMS_P1;PMS_P2;Temp;Humidity;BMP_temperature;BMP_pressure;BME280_temperature;BME280_humidity;BME280_pressure;Samples;Min_cycle;Max_cycle;Signal;HPM_P1;HPM_P2
2022/05/18 00:00:22;;;;;;;2.47;2.27;;;16.80;71.00;;;;;;5018818;28;20195;-65
2022/05/18 00:02:48;;;;;;;2.83;2.63;;;16.80;71.30;;;;;;5033782;28;20191;-65
2022/05/18 00:05:14;;;;;;;3.30;2.30;;;16.80;71.50;;;;;;5052229;28;20187;-65
2022/05/18 00:07:40;;;;;;;2.83;2.47;;;16.70;71.70;;;;;;5051430;28;20297;-64
2022/05/18 00:10:06;;;;;;;2.50;2.30;;;16.70;72.10;;;;;;5051648;28;20223;-65
2022/05/18 00:12:32;;;;;;;2.70;2.40;;;16.60;72.50;;;;;;5050334;28;20206;-65
2022/05/18 00:14:58;;;;;;;2.83;2.40;;;16.60;72.70;;;;;;5018794;28;20195;-65
2022/05/18 00:17:23;;;;;;;2.50;2.30;;;16.50;72.80;;;;;;5017914;28;20235;-65
2022/05/18 00:19:49;;;;;;;2.70;2.50;;;16.50;72.90;;;;;;5050769;28;20194;-65
2022/05/18 00:22:15;;;;;;;2.87;2.50;;;16.50;73.00;;;;;;5017304;28;20207;-65
2022/05/18 00:24:40;;;;;;;2.90;2.60;;;16.50;73.10;;;;;;5016440;28;20187;-65
2022/05/18 00:27:07;;;;;;;3.00;2.60;;;16.50;73.20;;;;;;5018053;28;20245;-65
2022/05/18 00:29:33;;;;;;;3.10;2.80;;;16.50;73.30;;;;;;5016697;28;20304;-65
2022/05/18 00:32:00;;;;;;;2.87;2.57;;;16.50;73.30;;;;;;5051023;28;20198;-64
2022/05/18 00:34:25;;;;;;;2.70;2.50;;;16.50;73.10;;;;;;5067173;28;20194;-65
2022/05/18 00:36:51;;;;;;;2.60;2.40;;;16.50;73.00;;;;;;5051713;28;20183;-65
2022/05/18 00:39:17;;;;;;;3.00;2.60;;;16.50;73.10;;;;;;5049863;28;20257;-65
2022/05/18 00:41:42;;;;;;;3.30;2.50;;;16.50;73.10;;;;;;5033588;28;20265;-66
2022/05/18 00:44:08;;;;;;;4.70;2.93;;;16.50;72.70;;;;;;5005715;28;20204;-65
2022/05/18 00:46:34;;;;;;;3.10;2.70;;;16.50;72.40;;;;;;5031736;28;20237;-65
2022/05/18 00:49:05;;;;;;;2.70;2.50;;;16.50;72.30;;;;;;5029625;28;20208;-65
2022/05/18 00:51:38;;;;;;;2.70;2.50;;;16.50;72.20;;;;;;5013349;28;20295;-65
2022/05/18 00:54:24;;;;;;;2.70;2.50;;;16.50;72.30;;;;;;5013913;28;20195;-65
2022/05/18 00:57:10;;;;;;;2.87;2.67;;;16.50;72.20;;;;;;5013585;28;20191;-66
2022/05/18 00:59:49;;;;;;;2.80;2.50;;;16.50;72.30;;;;;;5046445;28;20199;-66
2022/05/18 01:02:16;;;;;;;2.83;2.60;;;16.50;72.70;;;;;;5014366;28;20502;-66
2022/05/18 01:04:45;;;;;;;2.80;2.60;;;16.40;73.10;;;;;;5029859;28;20230;-66
2022/05/18 01:07:16;;;;;;;4.37;2.60;;;16.40;73.20;;;;;;5014538;28;20192;-66
2022/05/18 01:09:45;;;;;;;3.33;2.60;;;16.30;73.50;;;;;;5031016;28;20219;-66
2022/05/18 01:12:16;;;;;;;2.80;2.60;;;16.30;73.70;;;;;;5033601;28;20183;-65
2022/05/18 01:14:48;;;;;;;3.20;2.90;;;16.30;73.70;;;;;;5034021;28;20185;-65
2022/05/18 01:17:17;;;;;;;2.70;2.50;;;16.30;73.80;;;;;;5033401;28;20333;-66
2022/05/18 01:19:47;;;;;;;2.80;2.60;;;16.30;74.00;;;;;;5022065;28;20199;-66
2022/05/18 01:22:15;;;;;;;3.13;2.70;;;16.30;74.10;;;;;;5013501;28;20326;-67
2022/05/18 01:25:01;;;;;;;2.83;2.50;;;16.30;74.20;;;;;;5046668;28;20183;-67
2022/05/18 01:27:27;;;;;;;3.40;2.77;;;16.30;74.30;;;;;;5023968;28;20183;-67
2022/05/18 01:29:53;;;;;;;3.50;3.03;;;16.30;74.30;;;;;;5016235;28;20220;-67
2022/05/18 01:32:20;;;;;;;2.80;2.60;;;16.20;74.20;;;;;;5032694;28;20259;-67
2022/05/18 01:34:46;;;;;;;3.20;2.93;;;16.20;74.60;;;;;;5033420;28;20228;-67
2022/05/18 01:37:14;;;;;;;2.53;2.33;;;16.20;74.50;;;;;;5049863;28;20203;-67
2022/05/18 01:39:51;;;;;;;2.60;2.40;;;16.20;74.50;;;;;;5034788;28;20187;-67
2022/05/18 01:42:29;;;;;;;3.20;3.00;;;16.20;74.50;;;;;;5034020;28;20194;-67
2022/05/18 01:44:54;;;;;;;2.90;2.60;;;16.20;75.00;;;;;;5032349;28;20187;-67
2022/05/18 01:47:20;;;;;;;3.63;3.10;;;16.20;75.30;;;;;;5032530;28;20187;-67
2022/05/18 01:49:47;;;;;;;3.20;3.00;;;16.10;75.50;;;;;;5065224;28;20272;-67
2022/05/18 01:52:14;;;;;;;3.00;2.70;;;16.10;75.50;;;;;;5033494;28;20195;-67
2022/05/18 01:54:46;;;;;;;3.17;2.87;;;16.10;75.60;;;;;;5023066;28;20187;-67
2022/05/18 01:57:12;;;;;;;3.20;2.90;;;16.00;75.40;;;;;;5066560;28;20171;-67
2022/05/18 01:59:39;;;;;;;3.03;2.67;;;16.00;76.00;;;;;;5048319;28;20290;-67
2022/05/18 02:02:06;;;;;;;2.97;2.77;;;16.00;76.10;;;;;;5012674;28;20210;-67
2022/05/18 02:04:35;;;;;;;3.60;2.90;;;16.00;76.00;;;;;;5045336;28;20181;-67
2022/05/18 02:07:02;;;;;;;3.10;2.83;;;16.00;76.10;;;;;;5013401;28;20187;-67
2022/05/18 02:09:28;;;;;;;3.43;3.13;;;16.00;75.50;;;;;;5034882;28;20215;-67
2022/05/18 02:11:55;;;;;;;3.63;2.80;;;16.00;75.80;;;;;;5016199;28;20202;-67
2022/05/18 02:14:21;;;;;;;3.97;2.87;;;16.00;76.00;;;;;;5032345;28;20187;-67
2022/05/18 02:16:47;;;;;;;2.93;2.60;;;16.00;76.10;;;;;;5016817;28;20175;-66
2022/05/18 02:19:13;;;;;;;3.63;3.17;;;15.90;76.10;;;;;;5014273;28;20202;-66
2022/05/18 02:21:39;;;;;;;3.30;3.00;;;15.90;76.20;;;;;;5032788;28;20195;-66
2022/05/18 02:24:05;;;;;;;3.93;2.87;;;15.90;76.20;;;;;;5028915;28;20192;-66
2022/05/18 02:26:31;;;;;;;3.43;3.00;;;15.80;76.30;;;;;;5028705;28;20271;-66
2022/05/18 02:28:57;;;;;;;3.67;3.37;;;15.80;76.40;;;;;;5045525;28;20274;-66
2022/05/18 02:31:22;;;;;;;4.83;2.80;;;15.80;76.60;;;;;;5028578;28;20211;-66
2022/05/18 02:33:48;;;;;;;4.93;2.60;;;15.80;76.80;;;;;;5045798;28;20188;-67
2022/05/18 02:36:14;;;;;;;3.40;2.70;;;15.80;76.80;;;;;;5014109;28;20172;-67
2022/05/18 02:38:41;;;;;;;3.30;3.00;;;15.80;76.90;;;;;;5041188;28;20282;-67
2022/05/18 02:41:08;;;;;;;3.03;2.83;;;15.70;76.80;;;;;;5031790;28;20230;-67
2022/05/18 02:43:40;;;;;;;3.43;2.93;;;15.50;77.20;;;;;;5032131;28;20293;-67
2022/05/18 02:46:16;;;;;;;3.33;3.03;;;15.60;77.30;;;;;;5032989;28;20162;-67
2022/05/18 02:48:42;;;;;;;3.10;2.90;;;15.50;77.40;;;;;;5022192;28;20191;-67
2022/05/18 02:51:09;;;;;;;3.87;3.00;;;15.50;77.60;;;;;;5031904;28;20226;-67
2022/05/18 02:53:35;;;;;;;3.27;3.07;;;15.50;77.70;;;;;;5048996;28;20183;-67
2022/05/18 02:56:05;;;;;;;3.73;3.10;;;15.40;77.70;;;;;;5032452;28;20267;-67
2022/05/18 02:58:32;;;;;;;3.03;2.83;;;15.40;77.70;;;;;;5031642;28;20237;-67
2022/05/18 03:00:59;;;;;;;3.87;3.23;;;15.40;77.80;;;;;;5032308;28;20266;-67
2022/05/18 03:03:25;;;;;;;3.63;3.33;;;15.30;77.80;;;;;;5016039;28;20278;-67
2022/05/18 03:05:50;;;;;;;3.30;3.03;;;15.30;77.90;;;;;;5032059;28;20281;-64
2022/05/18 03:08:16;;;;;;;2.70;2.50;;;15.30;77.80;;;;;;5048454;28;20271;-63
2022/05/18 03:10:42;;;;;;;4.83;3.30;;;15.30;77.70;;;;;;5031993;28;20214;-62
2022/05/18 03:13:08;;;;;;;3.10;2.83;;;15.30;77.70;;;;;;5014076;28;20226;-62
2022/05/18 03:15:34;;;;;;;3.83;3.37;;;15.30;77.90;;;;;;5013626;28;20222;-62
2022/05/18 03:18:00;;;;;;;3.87;3.47;;;15.30;78.20;;;;;;5047206;28;20267;-63
2022/05/18 03:25:54;;;;;;;3.57;3.27;;;15.20;78.70;;;;;;5030822;28;20202;-62
2022/05/18 03:28:20;;;;;;;4.07;3.43;;;15.20;78.70;;;;;;5041620;28;20200;-62
2022/05/18 03:30:45;;;;;;;3.47;3.17;;;15.20;78.70;;;;;;5027535;28;20211;-63
2022/05/18 03:33:11;;;;;;;3.43;3.13;;;15.30;78.70;;;;;;5028962;28;20195;-60
2022/05/18 03:35:36;;;;;;;3.30;3.00;;;15.30;78.90;;;;;;5028359;28;20195;-60
2022/05/18 03:38:05;;;;;;;4.70;3.20;;;15.30;78.90;;;;;;5018764;28;20233;-60
2022/05/18 03:40:35;;;;;;;3.57;3.27;;;15.30;78.90;;;;;;5060083;28;20246;-60
2022/05/18 03:43:01;;;;;;;3.47;3.17;;;15.30;78.90;;;;;;5046749;28;20257;-60
2022/05/18 03:45:26;;;;;;;3.37;3.07;;;15.30;79.00;;;;;;5011938;28;20199;-60
2022/05/18 03:47:52;;;;;;;4.37;3.17;;;15.30;78.90;;;;;;5013659;28;20202;-60
2022/05/18 03:50:18;;;;;;;3.50;3.20;;;15.30;78.80;;;;;;5013153;28;20226;-60
2022/05/18 03:52:43;;;;;;;3.67;3.17;;;15.30;78.90;;;;;;5030021;28;20218;-60
2022/05/18 03:55:10;;;;;;;3.53;3.23;;;15.30;78.80;;;;;;5045121;28;20237;-60
2022/05/18 03:57:35;;;;;;;3.60;3.30;;;15.30;78.90;;;;;;5032128;28;20202;-60
2022/05/18 04:00:01;;;;;;;7.60;3.50;;;15.30;79.20;;;;;;5013620;28;21451;-60
2022/05/18 04:02:26;;;;;;;3.60;3.30;;;15.30;79.40;;;;;;5011402;28;20443;-60
2022/05/18 04:04:52;;;;;;;3.53;3.23;;;15.30;79.40;;;;;;5055196;28;20218;-60
2022/05/18 04:07:18;;;;;;;3.37;3.07;;;15.30;79.60;;;;;;5031532;28;20203;-60
2022/05/18 04:09:47;;;;;;;3.80;3.37;;;15.20;79.70;;;;;;5021816;28;20234;-60
2022/05/18 04:12:13;;;;;;;3.80;3.40;;;15.20;79.60;;;;;;5016300;28;20205;-60
2022/05/18 04:14:39;;;;;;;3.70;3.33;;;15.20;79.60;;;;;;5014371;28;20193;-60
2022/05/18 04:17:04;;;;;;;3.50;3.20;;;15.30;79.60;;;;;;5013276;28;20183;-60
2022/05/18 04:19:30;;;;;;;3.90;3.57;;;15.30;79.80;;;;;;5030183;28;20203;-60
2022/05/18 04:21:56;;;;;;;3.43;3.13;;;15.30;79.70;;;;;;5031419;28;20197;-60
2022/05/18 04:24:21;;;;;;;4.10;3.70;;;15.30;79.60;;;;;;5014116;28;20253;-60
2022/05/18 04:26:47;;;;;;;3.50;3.20;;;15.30;79.60;;;;;;5001234;28;20229;-61
2022/05/18 04:29:13;;;;;;;3.93;2.93;;;15.30;79.30;;;;;;5043190;28;20191;-59
2022/05/18 04:31:40;;;;;;;5.17;3.93;;;15.30;79.00;;;;;;5065219;28;20191;-59
2022/05/18 04:34:06;;;;;;;4.80;3.40;;;15.30;79.30;;;;;;5035094;28;20188;-60
2022/05/18 04:36:31;;;;;;;3.60;3.23;;;15.40;79.40;;;;;;5051808;28;20206;-61
2022/05/18 04:38:57;;;;;;;5.07;3.80;;;15.40;79.40;;;;;;5051635;28;20198;-61
2022/05/18 04:41:23;;;;;;;3.83;3.47;;;15.40;79.20;;;;;;5047679;28;20242;-61
2022/05/18 04:43:48;;;;;;;6.50;3.63;;;15.50;79.50;;;;;;5034778;28;20211;-61
2022/05/18 04:46:14;;;;;;;3.90;3.57;;;15.60;79.70;;;;;;5068283;28;20239;-61
2022/05/18 04:48:41;;;;;;;6.07;3.87;;;15.60;79.40;;;;;;5018231;28;20187;-61
2022/05/18 04:51:06;;;;;;;3.53;3.23;;;15.70;79.40;;;;;;5039881;28;20216;-61
2022/05/18 04:53:36;;;;;;;4.13;3.77;;;15.70;79.20;;;;;;5018067;28;20194;-61
2022/05/18 04:56:03;;;;;;;5.47;3.43;;;15.70;78.90;;;;;;5031856;28;20184;-62
2022/05/18 04:58:29;;;;;;;4.50;3.13;;;15.80;78.60;;;;;;5024297;28;20270;-62
2022/05/18 05:01:02;;;;;;;4.43;4.03;;;15.90;78.40;;;;;;5048048;28;20290;-63
2022/05/18 05:03:28;;;;;;;4.53;3.87;;;15.90;77.20;;;;;;5067342;28;20182;-62
2022/05/18 05:05:53;;;;;;;3.63;3.10;;;16.00;77.40;;;;;;5034392;28;20198;-60
2022/05/18 05:08:20;;;;;;;4.77;3.70;;;16.10;77.60;;;;;;5050635;28;20240;-60
2022/05/18 05:10:45;;;;;;;4.63;3.20;;;16.10;76.60;;;;;;5034150;28;20297;-60
2022/05/18 05:13:11;;;;;;;3.57;3.27;;;16.10;76.30;;;;;;5017425;28;20320;-60
2022/05/18 05:15:37;;;;;;;4.00;3.40;;;16.10;75.90;;;;;;5017457;28;20240;-60
2022/05/18 05:18:03;;;;;;;4.10;3.30;;;16.20;75.80;;;;;;5034246;28;20190;-61
2022/05/18 05:20:29;;;;;;;4.00;3.53;;;16.10;75.80;;;;;;5033505;28;20270;-61
2022/05/18 05:22:55;;;;;;;4.10;3.70;;;16.10;75.90;;;;;;5033422;28;20186;-61
2022/05/18 05:25:21;;;;;;;4.30;3.80;;;16.10;76.20;;;;;;5032422;28;20198;-60
2022/05/18 05:27:47;;;;;;;4.40;3.33;;;16.10;76.10;;;;;;5065406;28;20187;-61
2022/05/18 05:30:13;;;;;;;4.00;3.50;;;16.10;76.50;;;;;;5049215;28;20294;-61
2022/05/18 05:32:40;;;;;;;3.30;3.00;;;16.00;76.70;;;;;;5048578;28;20222;-59
2022/05/18 05:35:08;;;;;;;3.43;3.13;;;16.00;76.70;;;;;;5033917;28;20172;-59
2022/05/18 05:37:33;;;;;;;4.70;2.90;;;16.00;76.40;;;;;;5033699;28;20176;-60
2022/05/18 05:39:59;;;;;;;4.87;3.20;;;16.00;76.80;;;;;;5033001;28;20197;-60
2022/05/18 05:42:25;;;;;;;3.47;3.13;;;15.90;76.70;;;;;;5050283;28;20237;-60
2022/05/18 05:44:51;;;;;;;3.60;3.13;;;15.90;76.50;;;;;;5022015;28;20210;-60
2022/05/18 05:47:17;;;;;;;3.53;3.23;;;15.90;76.70;;;;;;4997783;28;20183;-60
2022/05/18 05:49:43;;;;;;;4.50;3.20;;;15.80;75.80;;;;;;5021168;28;20211;-60
2022/05/18 05:52:09;;;;;;;4.07;2.80;;;15.80;76.20;;;;;;5016101;28;20190;-60
2022/05/18 05:54:35;;;;;;;4.50;3.20;;;15.80;76.30;;;;;;5033445;28;20190;-60
2022/05/18 05:57:04;;;;;;;4.60;3.40;;;15.80;75.00;;;;;;5033581;28;20191;-59
2022/05/18 05:59:32;;;;;;;9.37;3.70;;;15.80;75.10;;;;;;5032838;28;20174;-59
2022/05/18 06:02:03;;;;;;;11.60;4.63;;;15.80;75.40;;;;;;5033502;28;20210;-60
2022/05/18 06:04:30;;;;;;;14.23;4.67;;;15.90;75.30;;;;;;5031914;28;20179;-60
2022/05/18 06:06:56;;;;;;;14.80;5.40;;;15.90;74.40;;;;;;5015438;28;20183;-60
2022/05/18 06:09:21;;;;;;;19.90;7.93;;;16.00;74.40;;;;;;5033708;28;20261;-59
2022/05/18 06:11:48;;;;;;;16.00;6.40;;;16.00;74.00;;;;;;5032025;28;20222;-60
2022/05/18 06:14:14;;;;;;;9.60;4.70;;;16.20;72.70;;;;;;5012371;28;20184;-60
2022/05/18 06:16:40;;;;;;;4.17;2.80;;;16.20;71.90;;;;;;5045879;28;20187;-60
2022/05/18 06:19:05;;;;;;;3.13;2.67;;;16.20;72.10;;;;;;5063926;28;20193;-60
2022/05/18 06:21:31;;;;;;;5.83;3.20;;;16.30;71.20;;;;;;5049104;28;20258;-60
2022/05/18 06:23:56;;;;;;;5.40;3.07;;;16.30;70.10;;;;;;5048922;28;20201;-60
2022/05/18 06:26:25;;;;;;;5.77;3.70;;;16.40;70.20;;;;;;5024393;28;20200;-60
2022/05/18 06:28:50;;;;;;;4.90;3.60;;;16.40;70.20;;;;;;5013115;28;20191;-60
2022/05/18 06:31:16;;;;;;;5.30;3.13;;;16.50;70.60;;;;;;4996606;28;20215;-59
2022/05/18 06:33:42;;;;;;;4.30;3.17;;;16.50;70.90;;;;;;5015460;28;20216;-61
2022/05/18 06:36:08;;;;;;;5.43;3.10;;;16.50;70.90;;;;;;5015124;28;20180;-60
2022/05/18 06:38:34;;;;;;;3.10;2.80;;;16.50;67.40;;;;;;5032105;28;20230;-60
2022/05/18 06:43:44;;;;;;;5.57;2.83;;;16.60;69.80;;;;;;5032306;28;20229;-60
2022/05/18 06:46:09;;;;;;;3.63;2.90;;;16.60;69.70;;;;;;5053515;28;20192;-60
2022/05/18 06:48:35;;;;;;;4.80;3.03;;;16.70;67.10;;;;;;5012050;28;20191;-60
2022/05/18 06:51:01;;;;;;;3.97;3.07;;;16.70;67.80;;;;;;5020489;28;20229;-60
2022/05/18 06:53:26;;;;;;;3.20;2.93;;;16.60;66.90;;;;;;5015536;28;20282;-60
2022/05/18 06:55:52;;;;;;;3.40;3.10;;;16.70;67.30;;;;;;5013582;28;20278;-60
2022/05/18 06:58:18;;;;;;;4.90;2.97;;;16.70;67.90;;;;;;5033460;28;20205;-60
2022/05/18 07:00:44;;;;;;;3.90;2.73;;;16.60;68.40;;;;;;5032245;28;20206;-60
2022/05/18 07:03:10;;;;;;;2.77;2.57;;;16.70;69.10;;;;;;5016206;28;20190;-61
2022/05/18 07:05:36;;;;;;;6.60;2.60;;;16.70;69.30;;;;;;5032537;28;20183;-61
2022/05/18 07:08:03;;;;;;;3.40;3.00;;;16.70;69.00;;;;;;5015754;28;20194;-61
2022/05/18 07:10:29;;;;;;;3.20;2.90;;;16.70;66.60;;;;;;5031553;28;20242;-62
2022/05/18 07:12:56;;;;;;;2.70;2.50;;;16.80;67.50;;;;;;5007784;28;20212;-60
2022/05/18 07:15:22;;;;;;;3.40;2.57;;;16.80;67.50;;;;;;5011430;28;20187;-60
2022/05/18 07:17:47;;;;;;;3.50;3.00;;;16.80;68.40;;;;;;5033488;28;20187;-60
2022/05/18 07:20:13;;;;;;;3.80;2.57;;;16.80;67.40;;;;;;5031110;28;20283;-60
2022/05/18 07:22:39;;;;;;;3.60;2.80;;;16.90;66.80;;;;;;5031104;28;20206;-60
2022/05/18 07:25:05;;;;;;;2.97;2.70;;;16.90;65.40;;;;;;5014324;28;20197;-61
2022/05/18 07:27:31;;;;;;;3.73;2.40;;;17.00;63.20;;;;;;5031700;28;20195;-61
2022/05/18 07:29:57;;;;;;;4.00;2.73;;;17.10;62.60;;;;;;5014493;28;20226;-61
2022/05/18 07:32:22;;;;;;;3.77;2.93;;;17.10;63.60;;;;;;5030399;28;20188;-61
2022/05/18 07:34:48;;;;;;;4.47;2.60;;;17.20;63.90;;;;;;5047458;28;20249;-61
2022/05/18 07:37:15;;;;;;;3.93;2.60;;;17.20;65.10;;;;;;5030993;28;20195;-60
2022/05/18 07:39:41;;;;;;;6.73;3.07;;;17.30;65.40;;;;;;5031398;28;20195;-61
2022/05/18 07:42:07;;;;;;;3.47;2.20;;;17.30;64.70;;;;;;4998195;28;20242;-61
2022/05/18 07:44:35;;;;;;;6.73;2.80;;;17.30;64.60;;;;;;5043845;28;20184;-60
2022/05/18 07:47:02;;;;;;;3.73;2.43;;;17.30;63.10;;;;;;5041860;28;20280;-61
2022/05/18 07:49:33;;;;;;;3.00;2.10;;;17.40;62.90;;;;;;5032865;28;20198;-61
2022/05/18 07:52:00;;;;;;;4.27;2.67;;;17.40;60.60;;;;;;5017113;28;20234;-61
2022/05/18 07:54:25;;;;;;;5.20;2.80;;;17.60;57.20;;;;;;5048468;28;20191;-61
2022/05/18 07:56:51;;;;;;;7.17;2.90;;;17.70;59.30;;;;;;5047349;28;20219;-60
2022/05/18 07:59:17;;;;;;;4.23;2.60;;;17.80;54.60;;;;;;5015643;28;20226;-60
2022/05/18 08:01:43;;;;;;;3.23;2.00;;;17.80;57.70;;;;;;5019537;28;20221;-60
2022/05/18 08:04:09;;;;;;;3.07;2.47;;;17.90;56.20;;;;;;5033792;28;20187;-60
2022/05/18 08:06:35;;;;;;;2.57;2.03;;;18.00;58.30;;;;;;5024610;28;20195;-61
2022/05/18 08:09:02;;;;;;;2.33;2.13;;;18.00;58.50;;;;;;5017524;28;20172;-61
2022/05/18 08:16:56;;;;;;;2.67;2.20;;;18.40;54.00;;;;;;5027227;28;20297;-60
2022/05/18 08:19:21;;;;;;;2.97;2.07;;;18.50;53.90;;;;;;5033079;28;20212;-60
2022/05/18 08:21:48;;;;;;;2.57;1.90;;;18.60;53.30;;;;;;5017939;28;20183;-60
2022/05/18 08:24:14;;;;;;;4.17;2.53;;;18.60;54.10;;;;;;5018119;28;20187;-60
2022/05/18 08:26:42;;;;;;;2.60;2.27;;;18.70;56.00;;;;;;5044148;28;20210;-61
2022/05/18 08:29:09;;;;;;;4.97;2.47;;;18.70;54.60;;;;;;5051452;28;20191;-61
2022/05/18 08:31:35;;;;;;;3.93;2.23;;;18.70;53.90;;;;;;5051110;28;20176;-61
2022/05/18 08:34:01;;;;;;;2.63;2.30;;;18.80;53.40;;;;;;5068063;28;20171;-61
2022/05/18 08:36:27;;;;;;;2.27;2.00;;;18.90;53.30;;;;;;5033798;28;20175;-61
2022/05/18 08:38:55;;;;;;;3.20;2.23;;;18.90;54.60;;;;;;5034290;28;20194;-61
2022/05/18 08:41:25;;;;;;;2.27;2.03;;;18.90;54.30;;;;;;5017238;28;20290;-61
2022/05/18 08:43:56;;;;;;;3.20;2.17;;;18.90;52.70;;;;;;5034866;28;20187;-61
2022/05/18 08:46:43;;;;;;;4.10;2.27;;;19.00;53.70;;;;;;5053668;28;20515;-61
2022/05/18 08:49:43;;;;;;;3.63;1.93;;;19.00;51.20;;;;;;5021034;28;20210;-61
2022/05/18 08:52:33;;;;;;;2.47;2.27;;;19.00;52.00;;;;;;5015645;28;20250;-61
2022/05/18 08:55:08;;;;;;;3.97;2.20;;;19.10;52.20;;;;;;5022255;28;20189;-61
2022/05/18 08:57:40;;;;;;;4.47;2.37;;;19.20;50.60;;;;;;5067819;28;20236;-61
2022/05/18 09:00:25;;;;;;;2.90;2.60;;;19.10;51.00;;;;;;5034300;28;20187;-61
2022/05/18 09:03:02;;;;;;;3.33;1.93;;;19.20;51.10;;;;;;5033535;28;20215;-60
2022/05/18 09:05:38;;;;;;;2.63;2.30;;;19.20;50.60;;;;;;5034047;28;20183;-60
2022/05/18 09:08:10;;;;;;;2.10;1.90;;;19.30;48.40;;;;;;5034293;28;20179;-60
2022/05/18 09:10:47;;;;;;;4.80;2.30;;;19.20;48.40;;;;;;5067232;28;20215;-60
2022/05/18 09:13:13;;;;;;;3.43;2.20;;;19.20;48.80;;;;;;5066853;28;20237;-61
2022/05/18 09:16:04;;;;;;;2.60;1.93;;;19.20;51.40;;;;;;5033931;28;20191;-60
2022/05/18 09:18:41;;;;;;;2.50;2.03;;;19.20;52.30;;;;;;5033991;28;20186;-60
2022/05/18 09:21:25;;;;;;;3.77;2.00;;;19.30;49.00;;;;;;5033155;28;20194;-60
2022/05/18 09:24:09;;;;;;;2.80;2.10;;;19.30;49.90;;;;;;5066893;28;20227;-60
2022/05/18 09:27:05;;;;;;;4.13;2.40;;;19.30;48.60;;;;;;5024464;28;20214;-60
2022/05/18 09:29:49;;;;;;;3.33;2.23;;;19.50;49.80;;;;;;5066413;28;20210;-60
2022/05/18 09:32:21;;;;;;;4.23;2.00;;;19.60;50.50;;;;;;5032966;28;20199;-60
2022/05/18 09:35:06;;;;;;;3.47;1.93;;;19.60;51.40;;;;;;5029993;28;20195;-60
2022/05/18 09:37:51;;;;;;;3.10;2.23;;;19.70;47.70;;;;;;5046637;28;20210;-60
2022/05/18 09:40:19;;;;;;;3.20;1.90;;;19.70;48.30;;;;;;5051463;28;20246;-60
2022/05/18 09:42:55;;;;;;;4.90;2.23;;;19.80;49.50;;;;;;5032827;28;20187;-60
2022/05/18 09:45:26;;;;;;;3.80;2.90;;;19.90;50.10;;;;;;5032715;28;20175;-60
2022/05/18 09:48:13;;;;;;;3.93;2.20;;;20.10;49.80;;;;;;5033917;28;20301;-60
2022/05/18 09:50:42;;;;;;;3.40;1.90;;;20.20;47.30;;;;;;5032640;28;20214;-60
2022/05/18 09:53:08;;;;;;;3.00;1.80;;;20.30;47.10;;;;;;5032407;28;20188;-60
2022/05/18 09:55:34;;;;;;;2.30;1.90;;;20.40;50.00;;;;;;5014860;28;20210;-60
2022/05/18 09:58:05;;;;;;;2.17;1.87;;;20.50;49.90;;;;;;5042021;28;20273;-60
2022/05/18 10:00:34;;;;;;;2.37;1.97;;;20.60;49.00;;;;;;5046968;28;20219;-60
2022/05/18 10:08:47;;;;;;;5.63;2.40;;;20.80;47.20;;;;;;5032653;28;20241;-61
2022/05/18 10:11:16;;;;;;;4.90;3.53;;;20.70;44.40;;;;;;5015603;28;20226;-61
2022/05/18 10:13:55;;;;;;;3.40;2.33;;;20.80;48.00;;;;;;5031463;28;20210;-61
2022/05/18 10:16:41;;;;;;;3.53;2.43;;;20.90;46.20;;;;;;5065403;28;20190;-61
2022/05/18 10:19:21;;;;;;;3.13;2.20;;;20.80;44.30;;;;;;5031528;28;20198;-61
2022/05/18 10:21:55;;;;;;;3.30;2.00;;;20.80;44.00;;;;;;5033635;28;20163;-61
2022/05/18 10:24:27;;;;;;;4.57;1.90;;;20.80;44.80;;;;;;5018000;28;20187;-61
2022/05/18 10:27:13;;;;;;;2.43;1.90;;;20.80;45.30;;;;;;5045341;28;20192;-61
2022/05/18 10:29:40;;;;;;;5.00;2.20;;;20.70;47.10;;;;;;5045185;28;20200;-61
2022/05/18 10:32:19;;;;;;;3.57;2.30;;;20.80;45.30;;;;;;5026838;28;20273;-60
2022/05/18 10:34:48;;;;;;;5.93;2.00;;;20.80;45.60;;;;;;5031403;28;20179;-59
2022/05/18 10:37:24;;;;;;;2.87;1.90;;;20.80;44.80;;;;;;5030406;28;20183;-61
2022/05/18 10:39:50;;;;;;;2.77;1.73;;;20.80;45.00;;;;;;5031653;28;20182;-61
2022/05/18 10:42:24;;;;;;;2.20;1.90;;;20.80;46.50;;;;;;5031794;28;20202;-61
2022/05/18 10:44:52;;;;;;;3.63;1.83;;;20.80;44.70;;;;;;5032500;28;20241;-61
2022/05/18 10:47:26;;;;;;;5.73;1.90;;;21.00;43.10;;;;;;5032783;28;20179;-61
2022/05/18 10:50:11;;;;;;;4.63;1.83;;;21.10;43.40;;;;;;5026368;28;20218;-61
2022/05/18 10:52:37;;;;;;;1.73;1.50;;;21.10;42.70;;;;;;5032048;28;20190;-61
2022/05/18 10:55:16;;;;;;;2.30;1.57;;;21.20;44.70;;;;;;5011760;28;20203;-61
2022/05/18 10:58:03;;;;;;;4.20;1.80;;;21.30;45.00;;;;;;5064959;28;20445;-65
2022/05/18 11:00:39;;;;;;;5.77;1.57;;;21.30;44.40;;;;;;5033536;28;20179;-62
2022/05/18 11:03:14;;;;;;;2.87;2.00;;;21.40;46.10;;;;;;5033542;28;20178;-61
2022/05/18 11:05:51;;;;;;;2.37;2.17;;;21.60;45.00;;;;;;5033326;28;20159;-61
2022/05/18 11:08:20;;;;;;;3.13;1.90;;;21.70;42.30;;;;;;5033131;28;20261;-61
2022/05/18 11:11:16;;;;;;;3.07;1.70;;;21.70;41.40;;;;;;5065233;28;20221;-64
2022/05/18 11:13:54;;;;;;;3.37;1.93;;;21.80;45.90;;;;;;5022395;28;20198;-61
2022/05/18 11:16:35;;;;;;;3.73;2.10;;;22.10;44.00;;;;;;5063554;28;20221;-61
2022/05/18 11:19:30;;;;;;;4.13;1.80;;;22.20;43.40;;;;;;5030729;28;20190;-61
2022/05/18 11:22:01;;;;;;;5.13;1.80;;;22.30;39.90;;;;;;5027951;28;20290;-61
2022/05/18 11:25:02;;;;;;;1.90;1.70;;;22.40;42.80;;;;;;5028653;28;20188;-61
2022/05/18 11:27:37;;;;;;;1.80;1.70;;;22.60;40.80;;;;;;5032419;28;20210;-61
2022/05/18 11:30:39;;;;;;;2.00;1.70;;;22.70;42.80;;;;;;5064627;28;20214;-61
2022/05/18 11:33:34;;;;;;;2.77;1.47;;;22.90;43.30;;;;;;5024208;28;20197;-61
2022/05/18 11:36:21;;;;;;;2.77;1.77;;;23.00;42.30;;;;;;5068587;28;20201;-61
2022/05/18 11:39:10;;;;;;;2.13;1.90;;;23.10;41.50;;;;;;5069348;28;20171;-61
2022/05/18 11:42:00;;;;;;;2.67;1.47;;;23.20;41.30;;;;;;5069311;28;20239;-63
2022/05/18 11:44:58;;;;;;;3.13;1.90;;;23.20;39.80;;;;;;5016880;28;20183;-62
2022/05/18 11:47:45;;;;;;;1.60;1.50;;;23.30;43.00;;;;;;5047816;28;20253;-62
2022/05/18 11:50:49;;;;;;;2.37;1.80;;;23.70;42.20;;;;;;5016278;28;20218;-62
2022/05/18 11:53:30;;;;;;;2.30;1.70;;;23.80;37.00;;;;;;5025518;28;20183;-61
2022/05/18 11:56:33;;;;;;;2.33;1.77;;;23.90;39.60;;;;;;5035776;28;20190;-61
2022/05/18 12:01:35;;;;;;;1.70;1.47;;;23.70;37.20;;;;;;5035593;28;20191;-61
2022/05/18 12:04:26;;;;;;;1.70;1.60;;;23.70;40.80;;;;;;5035568;28;20199;-62
2022/05/18 12:07:17;;;;;;;3.90;1.70;;;23.50;41.00;;;;;;5034241;28;20187;-62
2022/05/18 12:10:19;;;;;;;2.30;2.03;;;23.50;39.50;;;;;;5033607;28;20313;-62
2022/05/18 12:12:57;;;;;;;4.03;1.63;;;23.30;38.60;;;;;;5035806;28;20183;-62
2022/05/18 12:15:27;;;;;;;3.47;1.90;;;23.30;38.70;;;;;;5033433;28;20177;-61
2022/05/18 12:18:20;;;;;;;3.30;2.03;;;23.40;38.50;;;;;;5034373;28;20229;-61
2022/05/18 12:21:02;;;;;;;1.63;1.47;;;23.70;40.80;;;;;;5034212;28;20187;-61
2022/05/18 12:23:34;;;;;;;4.27;1.70;;;24.10;40.00;;;;;;5066974;28;20187;-60
2022/05/18 12:26:00;;;;;;;1.50;1.40;;;24.50;40.80;;;;;;5062687;28;20192;-60
2022/05/18 12:28:27;;;;;;;4.67;1.87;;;24.90;39.00;;;;;;5052366;28;20202;-60
2022/05/18 12:30:54;;;;;;;2.57;1.80;;;25.30;35.50;;;;;;5051701;28;20227;-61
2022/05/18 12:33:21;;;;;;;1.80;1.50;;;25.60;35.50;;;;;;5051541;28;20172;-61
2022/05/18 12:35:59;;;;;;;2.83;1.83;;;25.60;36.30;;;;;;5036138;28;20243;-61
2022/05/18 12:38:32;;;;;;;3.40;2.10;;;25.70;37.90;;;;;;5052870;28;20187;-61
2022/05/18 12:41:04;;;;;;;4.60;2.13;;;25.60;34.30;;;;;;5015993;28;20234;-61
2022/05/18 12:43:44;;;;;;;3.57;1.73;;;25.30;34.60;;;;;;5021710;28;20193;-61
2022/05/18 12:46:16;;;;;;;2.80;1.60;;;25.70;37.50;;;;;;5033558;28;20175;-61
2022/05/18 12:49:05;;;;;;;2.43;1.47;;;26.10;36.60;;;;;;5034442;28;20187;-61
2022/05/18 12:52:22;;;;;;;2.10;1.63;;;26.70;34.40;;;;;;5034467;28;20249;-61
2022/05/18 12:54:53;;;;;;;2.00;1.80;;;27.30;32.80;;;;;;5012713;28;20191;-61
2022/05/18 12:57:49;;;;;;;4.50;1.70;;;28.20;33.90;;;;;;5033718;28;20168;-61
2022/05/18 13:00:23;;;;;;;3.87;2.00;;;28.90;29.40;;;;;;5024181;28;20207;-60
2022/05/18 13:03:09;;;;;;;1.77;1.33;;;29.40;29.40;;;;;;5047683;28;20183;-61
2022/05/18 13:05:40;;;;;;;2.33;1.67;;;29.80;29.50;;;;;;5007599;28;20188;-61
2022/05/18 13:08:35;;;;;;;3.20;1.90;;;29.90;29.00;;;;;;5022470;28;20261;-62
2022/05/18 13:11:19;;;;;;;1.67;1.43;;;30.40;28.30;;;;;;5033576;28;20214;-61
2022/05/18 13:14:06;;;;;;;2.70;1.70;;;31.00;27.60;;;;;;5032562;28;20187;-61
2022/05/18 13:16:38;;;;;;;4.50;1.60;;;31.30;26.10;;;;;;5033538;28;20175;-62
2022/05/18 13:19:21;;;;;;;3.93;1.70;;;31.30;26.70;;;;;;5033048;28;20187;-62
2022/05/18 13:22:09;;;;;;;1.80;1.53;;;31.20;25.90;;;;;;5033295;28;20175;-61
2022/05/18 13:24:48;;;;;;;3.53;1.80;;;31.00;26.90;;;;;;5031987;28;20253;-61
2022/05/18 13:27:20;;;;;;;1.93;1.47;;;30.60;28.10;;;;;;5033002;28;20265;-61